createdAt,value
2022-10-19T00:01:18.261Z,100.00
2022-10-19T00:03:53.448Z,100.00
2022-10-19T00:06:26.506Z,100.00
2022-10-19T00:09:01.935Z,100.00
2022-10-19T00:11:31.498Z,100.00
2022-10-19T00:14:01.251Z,100.00
2022-10-19T00:16:33.654Z,100.00
2022-10-19T00:19:04.430Z,100.00
2022-10-19T00:21:32.344Z,100.00
2022-10-19T00:24:00.086Z,100.00
2022-10-19T00:26:28.332Z,100.00
2022-10-19T00:28:57.243Z,100.00
2022-10-19T00:31:28.364Z,100.00
2022-10-19T00:34:00.456Z,100.00
2022-10-19T00:36:37.110Z,100.00
2022-10-19T00:39:07.233Z,100.00
2022-10-19T00:41:37.173Z,100.00
2022-10-19T00:44:30.490Z,100.00
2022-10-19T00:47:06.958Z,100.00
2022-10-19T00:49:45.851Z,100.00
2022-10-19T00:52:16.869Z,100.00
2022-10-19T00:54:47.772Z,100.00
2022-10-19T00:57:19.073Z,100.00
2022-10-19T00:59:51.720Z,100.00
2022-10-19T01:02:19.580Z,100.00
2022-10-19T01:04:52.290Z,100.00
2022-10-19T01:07:25.135Z,100.00
2022-10-19T01:09:54.566Z,100.00
2022-10-19T01:12:52.986Z,100.00
2022-10-19T01:15:24.177Z,100.00
2022-10-19T01:18:05.368Z,100.00
2022-10-19T01:20:57.976Z,100.00
2022-10-19T01:23:59.195Z,100.00
2022-10-19T01:27:02.718Z,100.00
2022-10-19T01:30:02.134Z,100.00
2022-10-19T01:32:44.496Z,100.00
2022-10-19T01:35:16.674Z,100.00
2022-10-19T01:37:49.906Z,100.00
2022-10-19T01:40:59.097Z,100.00
2022-10-19T01:43:36.827Z,100.00
2022-10-19T01:46:22.122Z,100.00
2022-10-19T01:48:59.196Z,100.00
2022-10-19T01:51:34.498Z,100.00
2022-10-19T01:54:07.289Z,100.00
2022-10-19T01:56:38.024Z,100.00
2022-10-19T01:59:10.073Z,100.00
2022-10-19T02:01:42.990Z,100.00
2022-10-19T02:04:16.571Z,100.00
2022-10-19T02:06:45.070Z,100.00
2022-10-19T02:09:18.604Z,100.00
2022-10-19T02:11:52.255Z,100.00
2022-10-19T02:14:30.257Z,100.00
2022-10-19T02:17:06.526Z,100.00
2022-10-19T02:19:35.060Z,100.00
2022-10-19T02:22:03.293Z,100.00
2022-10-19T02:24:33.956Z,100.00
2022-10-19T02:27:05.788Z,100.00
2022-10-19T02:29:34.876Z,100.00
2022-10-19T02:32:03.485Z,100.00
2022-10-19T02:34:31.740Z,100.00
2022-10-19T02:37:00.125Z,100.00
2022-10-19T02:39:28.963Z,100.00
2022-10-19T02:42:01.798Z,100.00
2022-10-19T02:45:09.154Z,100.00
2022-10-19T02:47:47.801Z,100.00
2022-10-19T02:50:17.473Z,100.00
2022-10-19T02:52:45.383Z,100.00
2022-10-19T02:55:13.238Z,100.00
2022-10-19T02:57:44.632Z,100.00
2022-10-19T03:00:15.322Z,100.00
2022-10-19T03:02:45.146Z,100.00
2022-10-19T03:05:13.016Z,100.00
2022-10-19T03:07:41.698Z,100.00
2022-10-19T03:10:10.163Z,100.00
2022-10-19T03:12:39.612Z,100.00
2022-10-19T03:15:07.932Z,100.00
2022-10-19T03:17:36.197Z,100.00
2022-10-19T03:20:04.738Z,100.00
2022-10-19T03:22:32.588Z,100.00
2022-10-19T03:25:00.855Z,100.00
2022-10-19T03:27:28.907Z,100.00
2022-10-19T03:29:59.857Z,100.00
2022-10-19T03:32:28.047Z,100.00
2022-10-19T03:34:55.980Z,100.00
2022-10-19T03:37:23.871Z,100.00
2022-10-19T03:39:52.157Z,100.00
2022-10-19T03:42:20.070Z,100.00
2022-10-19T03:44:47.978Z,100.00
2022-10-19T03:47:16.177Z,100.00
2022-10-19T03:49:43.950Z,100.00
2022-10-19T03:52:14.962Z,100.00
2022-10-19T03:54:46.807Z,100.00
2022-10-19T03:57:14.850Z,100.00
2022-10-19T03:59:43.064Z,100.00
2022-10-19T04:02:10.977Z,100.00
2022-10-19T04:04:39.202Z,100.00
2022-10-19T04:07:07.135Z,100.00
2022-10-19T04:09:38.066Z,100.00
2022-10-19T04:12:06.427Z,100.00
2022-10-19T04:14:52.481Z,100.00
2022-10-19T04:17:26.236Z,100.00
2022-10-19T04:19:54.226Z,100.00
2022-10-19T04:22:22.129Z,100.00
2022-10-19T04:24:50.319Z,100.00
2022-10-19T04:27:18.201Z,100.00
2022-10-19T04:29:46.002Z,100.00
2022-10-19T04:32:16.479Z,100.00
2022-10-19T04:34:44.217Z,100.00
2022-10-19T04:37:12.068Z,100.00
2022-10-19T04:39:41.414Z,100.00
2022-10-19T04:42:12.411Z,100.00
2022-10-19T04:44:40.624Z,100.00
2022-10-19T04:47:08.534Z,100.00
2022-10-19T04:49:36.395Z,100.00
2022-10-19T04:52:04.703Z,100.00
2022-10-19T04:54:32.648Z,100.00
2022-10-19T04:57:00.575Z,100.00
2022-10-19T04:59:31.289Z,100.00
2022-10-19T05:01:59.203Z,100.00
2022-10-19T05:04:27.190Z,100.00
2022-10-19T05:06:55.369Z,100.00
2022-10-19T05:09:23.243Z,100.00
2022-10-19T05:11:51.439Z,100.00
2022-10-19T05:14:19.783Z,100.00
2022-10-19T05:16:47.923Z,100.00
2022-10-19T05:19:15.855Z,100.00
2022-10-19T05:21:44.219Z,100.00
2022-10-19T05:24:13.705Z,100.00
2022-10-19T05:26:44.779Z,100.00
2022-10-19T05:29:13.740Z,100.00
2022-10-19T05:31:41.785Z,100.00
2022-10-19T05:34:09.731Z,100.00
2022-10-19T05:36:40.010Z,100.00
2022-10-19T05:39:12.470Z,100.00
2022-10-19T05:41:43.043Z,100.00
2022-10-19T05:44:18.732Z,100.00
2022-10-19T05:46:47.734Z,100.00
2022-10-19T05:49:16.840Z,100.00
2022-10-19T05:51:48.575Z,100.00
2022-10-19T05:54:17.607Z,100.00
2022-10-19T05:56:46.500Z,100.00
2022-10-19T05:59:20.007Z,100.00
2022-10-19T06:01:48.626Z,100.00
2022-10-19T06:06:50.253Z,100.00
2022-10-19T06:09:18.660Z,100.00
2022-10-19T06:11:46.592Z,100.00
2022-10-19T06:14:16.559Z,96.93
2022-10-19T06:16:46.326Z,100.00
2022-10-19T06:19:14.623Z,99.84
2022-10-19T06:21:46.021Z,100.00
2022-10-19T06:24:17.411Z,100.00
2022-10-19T06:26:45.426Z,99.27
2022-10-19T06:29:16.161Z,96.71
2022-10-19T06:31:44.429Z,100.00
2022-10-19T06:34:15.100Z,100.00
2022-10-19T06:36:42.854Z,96.67
2022-10-19T06:39:11.227Z,99.35
2022-10-19T06:41:42.202Z,100.00
2022-10-19T06:44:12.965Z,100.00
2022-10-19T06:46:41.208Z,100.00
2022-10-19T06:49:14.220Z,98.80
2022-10-19T06:51:42.322Z,98.53
2022-10-19T06:54:10.260Z,94.88
2022-10-19T06:56:38.015Z,93.34
2022-10-19T06:59:06.206Z,99.67
2022-10-19T07:01:33.987Z,99.61
2022-10-19T07:04:03.018Z,94.79
2022-10-19T07:06:31.229Z,97.91
2022-10-19T07:08:59.078Z,98.33
2022-10-19T07:11:26.850Z,98.32
2022-10-19T07:13:55.091Z,93.51
2022-10-19T07:16:23.255Z,97.88
2022-10-19T07:18:53.331Z,97.16
2022-10-19T07:21:23.292Z,96.40
2022-10-19T07:23:51.722Z,90.89
2022-10-19T07:26:24.205Z,97.34
2022-10-19T07:28:52.545Z,95.08
2022-10-19T07:31:22.844Z,94.81
2022-10-19T07:33:57.028Z,93.76
2022-10-19T07:36:25.810Z,91.85
2022-10-19T07:38:53.703Z,94.65
2022-10-19T07:41:26.437Z,94.21
2022-10-19T07:43:55.100Z,90.99
2022-10-19T07:46:25.773Z,89.92
2022-10-19T07:48:54.156Z,92.92
2022-10-19T07:51:22.966Z,93.55
2022-10-19T07:53:53.997Z,92.24
2022-10-19T07:56:24.428Z,88.89
2022-10-19T07:58:57.026Z,89.91
2022-10-19T08:01:32.491Z,88.48
2022-10-19T08:06:52.449Z,89.02
2022-10-19T08:09:47.257Z,89.24
2022-10-19T08:12:13.817Z,87.06
2022-10-19T08:14:43.655Z,90.14
2022-10-19T08:17:17.055Z,88.33
2022-10-19T08:19:46.110Z,90.69
2022-10-19T08:22:17.042Z,90.98
2022-10-19T08:24:54.540Z,91.38
2022-10-19T08:27:22.639Z,90.39
2022-10-19T08:29:51.954Z,89.23
2022-10-19T08:32:20.047Z,90.12
2022-10-19T08:34:48.387Z,89.36
2022-10-19T08:37:26.098Z,90.56
2022-10-19T08:40:05.071Z,90.42
2022-10-19T08:42:56.796Z,91.57
2022-10-19T08:45:53.561Z,92.70
2022-10-19T08:48:29.852Z,93.23
2022-10-19T08:50:59.303Z,93.15
2022-10-19T08:53:40.630Z,92.41
2022-10-19T08:56:49.964Z,93.05
2022-10-19T08:59:57.776Z,92.52
2022-10-19T09:02:54.611Z,92.04
2022-10-19T09:05:35.452Z,90.21
2022-10-19T09:08:03.958Z,89.63
2022-10-19T09:10:39.282Z,90.59
2022-10-19T09:14:04.584Z,91.39
2022-10-19T09:16:35.563Z,92.00
2022-10-19T09:19:26.274Z,92.03
2022-10-19T09:22:02.145Z,90.11
2022-10-19T09:24:35.716Z,90.22
2022-10-19T09:27:04.188Z,90.53
2022-10-19T09:29:41.030Z,89.51
2022-10-19T09:32:22.603Z,89.96
2022-10-19T09:35:03.396Z,89.71
2022-10-19T09:37:33.043Z,90.74
2022-10-19T09:40:00.949Z,90.92
2022-10-19T09:42:34.343Z,89.66
2022-10-19T09:45:32.858Z,90.65
2022-10-19T09:48:08.764Z,88.25
2022-10-19T09:50:44.119Z,87.66
2022-10-19T09:53:22.254Z,88.11
2022-10-19T09:56:09.301Z,85.74
2022-10-19T09:58:37.082Z,87.30
2022-10-19T10:01:05.314Z,87.74
2022-10-19T10:03:40.688Z,87.85
2022-10-19T10:06:16.809Z,85.98
2022-10-19T10:08:59.839Z,86.25
2022-10-19T10:11:38.645Z,86.62
2022-10-19T10:14:36.794Z,87.74
2022-10-19T10:17:16.133Z,89.65
2022-10-19T10:19:59.669Z,88.37
2022-10-19T10:22:29.301Z,88.21
2022-10-19T10:25:01.125Z,88.11
2022-10-19T10:27:37.179Z,88.56
2022-10-19T10:30:09.140Z,88.07
2022-10-19T10:32:49.644Z,88.18
2022-10-19T10:35:21.754Z,88.57
2022-10-19T10:37:50.283Z,88.67
2022-10-19T10:40:27.011Z,88.98
2022-10-19T10:42:58.183Z,89.02
2022-10-19T10:45:31.841Z,90.13
2022-10-19T10:48:11.214Z,89.80
2022-10-19T10:50:39.430Z,89.65
2022-10-19T10:53:27.998Z,89.31
2022-10-19T10:55:57.423Z,91.10
2022-10-19T10:58:54.512Z,91.59
2022-10-19T11:01:28.506Z,91.78
2022-10-19T11:04:23.177Z,91.73
2022-10-19T11:06:57.519Z,92.85
2022-10-19T11:09:42.812Z,92.80
2022-10-19T11:12:16.562Z,93.98
2022-10-19T11:15:03.391Z,94.43
2022-10-19T11:17:37.692Z,95.17
2022-10-19T11:20:08.111Z,95.41
2022-10-19T11:22:57.663Z,94.39
2022-10-19T11:25:49.656Z,94.21
2022-10-19T11:28:48.267Z,95.58
2022-10-19T11:31:30.856Z,94.92
2022-10-19T11:34:21.198Z,94.64
2022-10-19T11:37:35.262Z,95.92
2022-10-19T11:40:27.689Z,96.01
2022-10-19T11:43:07.427Z,96.26
2022-10-19T11:46:00.041Z,97.50
2022-10-19T11:49:06.883Z,96.76
2022-10-19T11:52:02.028Z,96.78
2022-10-19T11:54:50.411Z,96.86
2022-10-19T11:57:30.578Z,98.11
2022-10-19T12:00:15.244Z,97.66
2022-10-19T12:03:27.336Z,97.66
2022-10-19T12:06:18.407Z,97.60
2022-10-19T12:09:19.977Z,98.34
2022-10-19T12:12:06.141Z,98.79
2022-10-19T12:14:39.511Z,97.70
2022-10-19T12:17:22.405Z,95.59
2022-10-19T12:19:53.565Z,95.02
2022-10-19T12:22:30.636Z,95.50
2022-10-19T12:25:01.983Z,98.12
2022-10-19T12:27:39.387Z,95.87
2022-10-19T12:30:14.764Z,98.14
2022-10-19T12:32:54.535Z,97.37
2022-10-19T12:35:29.003Z,98.13
2022-10-19T12:38:05.893Z,98.18
2022-10-19T12:41:03.737Z,98.09
2022-10-19T12:43:53.138Z,97.50
2022-10-19T12:46:48.390Z,97.73
2022-10-19T12:49:31.580Z,95.17
2022-10-19T12:52:01.545Z,95.47
2022-10-19T12:54:32.700Z,96.26
2022-10-19T12:57:03.662Z,95.45
2022-10-19T12:59:38.501Z,96.81
2022-10-19T13:05:06.226Z,99.14
2022-10-19T13:07:36.999Z,97.39
2022-10-19T13:10:09.913Z,98.60
2022-10-19T13:12:45.293Z,95.87
2022-10-19T13:15:48.302Z,98.43
2022-10-19T13:18:37.731Z,100.00
2022-10-19T13:21:08.477Z,100.00
2022-10-19T13:23:42.385Z,100.00
2022-10-19T13:26:32.946Z,100.00
2022-10-19T13:29:01.281Z,100.00
2022-10-19T13:31:31.615Z,100.00
2022-10-19T13:33:59.632Z,100.00
2022-10-19T13:36:32.269Z,100.00
2022-10-19T13:38:59.980Z,100.00
2022-10-19T13:41:37.135Z,100.00
2022-10-19T13:44:20.567Z,100.00
2022-10-19T13:46:57.610Z,100.00
2022-10-19T13:49:44.162Z,100.00
2022-10-19T13:52:26.821Z,100.00
2022-10-19T13:55:13.347Z,100.00
2022-10-19T13:57:53.108Z,100.00
2022-10-19T14:00:24.463Z,100.00
2022-10-19T14:03:31.679Z,100.00
2022-10-19T14:06:53.284Z,100.00
2022-10-19T14:09:48.890Z,100.00
2022-10-19T14:12:25.614Z,100.00
2022-10-19T14:14:54.105Z,100.00
2022-10-19T14:17:34.365Z,100.00
2022-10-19T14:20:04.358Z,100.00
2022-10-19T14:22:36.791Z,100.00
2022-10-19T14:25:21.688Z,100.00
2022-10-19T14:27:57.391Z,100.00
2022-10-19T14:30:25.793Z,100.00
2022-10-19T14:32:59.390Z,100.00
2022-10-19T14:35:46.226Z,100.00
2022-10-19T14:38:38.818Z,100.00
2022-10-19T14:41:18.258Z,100.00
2022-10-19T14:43:46.149Z,100.00
2022-10-19T14:46:16.379Z,100.00
2022-10-19T14:48:46.797Z,100.00
2022-10-19T14:51:36.569Z,100.00
2022-10-19T14:54:18.691Z,100.00
2022-10-19T14:56:52.319Z,100.00
2022-10-19T14:59:30.080Z,100.00
2022-10-19T15:02:05.748Z,100.00
2022-10-19T15:04:37.330Z,100.00
2022-10-19T15:07:21.444Z,100.00
2022-10-19T15:09:56.192Z,100.00
2022-10-19T15:12:36.141Z,100.00
2022-10-19T15:15:16.255Z,100.00
2022-10-19T15:17:55.386Z,100.00
2022-10-19T15:20:49.630Z,100.00
2022-10-19T15:23:31.477Z,100.00
2022-10-19T15:26:01.327Z,100.00
2022-10-19T15:31:56.225Z,100.00
2022-10-19T15:34:45.686Z,100.00
2022-10-19T15:37:23.191Z,100.00
2022-10-19T15:39:53.007Z,100.00
2022-10-19T15:42:44.453Z,100.00
2022-10-19T15:45:34.468Z,100.00
2022-10-19T15:48:28.297Z,100.00
2022-10-19T15:50:57.443Z,100.00
2022-10-19T15:53:28.582Z,100.00
2022-10-19T15:55:58.503Z,100.00
2022-10-19T15:58:26.378Z,100.00
2022-10-19T16:00:54.265Z,100.00
2022-10-19T16:03:23.459Z,100.00
2022-10-19T16:05:51.350Z,100.00
2022-10-19T16:08:19.200Z,100.00
2022-10-19T16:10:47.459Z,100.00
2022-10-19T16:13:15.210Z,100.00
2022-10-19T16:15:44.610Z,100.00
2022-10-19T16:18:12.899Z,100.00
2022-10-19T16:20:42.197Z,100.00
2022-10-19T16:23:10.706Z,100.00
2022-10-19T16:25:39.064Z,100.00
2022-10-19T16:28:06.855Z,100.00
2022-10-19T16:30:34.570Z,100.00
2022-10-19T16:33:02.681Z,100.00
2022-10-19T16:35:30.413Z,100.00
2022-10-19T16:37:59.391Z,100.00
2022-10-19T16:40:27.498Z,100.00
2022-10-19T16:42:58.940Z,100.00
2022-10-19T16:45:31.000Z,100.00
2022-10-19T16:47:58.971Z,100.00
2022-10-19T16:50:27.063Z,100.00
2022-10-19T16:53:07.246Z,100.00
2022-10-19T16:55:35.537Z,100.00
2022-10-19T16:58:04.042Z,100.00
2022-10-19T17:00:32.092Z,100.00
2022-10-19T17:03:00.158Z,100.00
2022-10-19T17:05:27.987Z,100.00
2022-10-19T17:07:55.650Z,100.00
2022-10-19T17:10:23.817Z,100.00
2022-10-19T17:12:51.596Z,100.00
2022-10-19T17:18:08.831Z,100.00
2022-10-19T17:20:36.532Z,100.00
2022-10-19T17:23:04.191Z,100.00
2022-10-19T17:25:32.313Z,100.00
2022-10-19T17:30:45.109Z,100.00
2022-10-19T17:33:12.776Z,100.00
2022-10-19T17:35:40.442Z,100.00
2022-10-19T17:38:08.472Z,100.00
2022-10-19T17:40:36.194Z,100.00
2022-10-19T17:43:03.864Z,100.00
2022-10-19T17:45:32.063Z,100.00
2022-10-19T17:47:59.774Z,100.00
2022-10-19T17:50:27.439Z,100.00
2022-10-19T17:52:55.439Z,100.00
2022-10-19T17:55:23.222Z,100.00
2022-10-19T17:57:50.868Z,100.00
2022-10-19T18:00:19.002Z,100.00
2022-10-19T18:02:47.350Z,100.00
2022-10-19T18:05:15.117Z,100.00
2022-10-19T18:07:44.036Z,100.00
2022-10-19T18:10:12.129Z,100.00
2022-10-19T18:12:40.059Z,100.00
2022-10-19T18:15:08.245Z,100.00
2022-10-19T18:17:36.408Z,100.00
2022-10-19T18:20:04.782Z,100.00
2022-10-19T18:22:32.540Z,100.00
2022-10-19T18:25:00.712Z,100.00
2022-10-19T18:27:28.630Z,100.00
2022-10-19T18:29:56.275Z,100.00
2022-10-19T18:35:10.567Z,100.00
2022-10-19T18:37:38.652Z,100.00
2022-10-19T18:40:06.932Z,100.00
2022-10-19T18:42:35.143Z,100.00
2022-10-19T18:45:04.227Z,100.00
2022-10-19T18:47:32.570Z,100.00
2022-10-19T18:50:00.511Z,100.00
2022-10-19T18:52:28.820Z,100.00
2022-10-19T18:54:56.516Z,100.00
2022-10-19T18:57:31.619Z,100.00
2022-10-19T19:00:01.200Z,100.00
2022-10-19T19:02:42.343Z,100.00
2022-10-19T19:05:14.385Z,100.00
2022-10-19T19:07:42.266Z,100.00
2022-10-19T19:10:10.243Z,100.00
2022-10-19T19:12:39.462Z,100.00
2022-10-19T19:15:08.969Z,100.00
2022-10-19T19:17:38.336Z,100.00
2022-10-19T19:20:07.523Z,100.00
2022-10-19T19:22:38.551Z,100.00
2022-10-19T19:25:06.977Z,100.00
2022-10-19T19:27:34.738Z,100.00
2022-10-19T19:30:05.015Z,100.00
2022-10-19T19:32:33.446Z,100.00
2022-10-19T19:35:01.686Z,100.00
2022-10-19T19:37:30.638Z,100.00
2022-10-19T19:39:58.737Z,100.00
2022-10-19T19:42:27.995Z,100.00
2022-10-19T19:44:55.854Z,100.00
2022-10-19T19:47:24.167Z,100.00
2022-10-19T19:49:54.968Z,100.00
2022-10-19T19:52:22.879Z,100.00
2022-10-19T19:54:51.069Z,100.00
2022-10-19T19:57:18.902Z,100.00
2022-10-19T19:59:46.671Z,100.00
2022-10-19T20:02:16.748Z,100.00
2022-10-19T20:04:47.909Z,100.00
2022-10-19T20:07:15.883Z,100.00
2022-10-19T20:09:44.123Z,100.00
2022-10-19T20:12:12.070Z,100.00
2022-10-19T20:14:40.077Z,100.00
2022-10-19T20:17:08.367Z,100.00
2022-10-19T20:19:36.612Z,100.00
2022-10-19T20:22:06.562Z,100.00
2022-10-19T20:24:37.645Z,100.00
2022-10-19T20:27:05.656Z,100.00
2022-10-19T20:29:33.613Z,100.00
2022-10-19T20:32:01.821Z,100.00
2022-10-19T20:34:29.600Z,100.00
2022-10-19T20:36:57.434Z,100.00
2022-10-19T20:39:25.506Z,100.00
2022-10-19T20:41:53.828Z,100.00
2022-10-19T20:44:21.693Z,100.00
2022-10-19T20:46:50.150Z,100.00
2022-10-19T20:49:21.213Z,100.00
2022-10-19T20:51:50.779Z,100.00
2022-10-19T20:54:18.555Z,100.00
2022-10-19T20:56:46.744Z,100.00
2022-10-19T20:59:17.477Z,100.00
2022-10-19T21:01:49.014Z,100.00
2022-10-19T21:04:17.655Z,100.00
2022-10-19T21:06:47.527Z,100.00
2022-10-19T21:09:20.687Z,100.00
2022-10-19T21:11:50.951Z,100.00
2022-10-19T21:14:29.782Z,100.00
2022-10-19T21:16:59.678Z,100.00
2022-10-19T21:19:31.398Z,100.00
2022-10-19T21:22:06.552Z,100.00
2022-10-19T21:24:36.984Z,100.00
2022-10-19T21:27:07.824Z,100.00
2022-10-19T21:29:36.887Z,100.00
2022-10-19T21:32:06.018Z,100.00
2022-10-19T21:34:34.298Z,100.00
2022-10-19T21:37:02.202Z,100.00
2022-10-19T21:39:30.384Z,100.00
2022-10-19T21:41:58.330Z,100.00
2022-10-19T21:44:26.021Z,100.00
2022-10-19T21:46:54.284Z,100.00
2022-10-19T21:49:25.002Z,100.00
2022-10-19T21:51:56.057Z,100.00
2022-10-19T21:54:25.468Z,100.00
2022-10-19T21:56:57.981Z,100.00
2022-10-19T21:59:26.546Z,100.00
2022-10-19T22:01:55.455Z,100.00
2022-10-19T22:04:24.427Z,100.00
2022-10-19T22:06:52.943Z,100.00
2022-10-19T22:09:23.667Z,100.00
2022-10-19T22:11:52.269Z,100.00
2022-10-19T22:14:20.173Z,100.00
2022-10-19T22:16:48.053Z,100.00
2022-10-19T22:19:16.230Z,100.00
2022-10-19T22:21:44.216Z,100.00
2022-10-19T22:24:15.041Z,100.00
2022-10-19T22:26:50.947Z,100.00
2022-10-19T22:29:19.044Z,100.00
2022-10-19T22:31:47.444Z,100.00
2022-10-19T22:34:17.645Z,100.00
2022-10-19T22:36:46.037Z,100.00
2022-10-19T22:39:15.183Z,100.00
2022-10-19T22:41:43.103Z,100.00
2022-10-19T22:44:13.907Z,100.00
2022-10-19T22:46:42.286Z,100.00
2022-10-19T22:49:10.203Z,100.00
2022-10-19T22:51:37.929Z,100.00
2022-10-19T22:54:06.290Z,100.00
2022-10-19T22:56:34.209Z,100.00
2022-10-19T22:59:03.786Z,100.00
2022-10-19T23:01:32.151Z,100.00
2022-10-19T23:04:03.462Z,100.00
2022-10-19T23:06:31.754Z,100.00
2022-10-19T23:08:59.663Z,100.00
2022-10-19T23:11:30.757Z,100.00
2022-10-19T23:13:58.809Z,100.00
2022-10-19T23:18:59.883Z,100.00
2022-10-19T23:21:27.725Z,100.00
2022-10-19T23:23:58.617Z,100.00
2022-10-19T23:26:26.779Z,100.00
2022-10-19T23:28:54.801Z,100.00
2022-10-19T23:31:27.136Z,100.00
2022-10-19T23:33:55.334Z,100.00
2022-10-19T23:36:27.145Z,100.00
2022-10-19T23:38:57.205Z,100.00
2022-10-19T23:41:25.072Z,100.00
2022-10-19T23:43:56.115Z,100.00
2022-10-19T23:46:24.414Z,100.00
2022-10-19T23:48:52.187Z,100.00
2022-10-19T23:51:21.631Z,100.00
2022-10-19T23:53:51.831Z,100.00
2022-10-19T23:56:25.071Z,100.00
2022-10-19T23:58:57.153Z,100.00
